EZS17VT LFSB-LGRP
Flight info
| Callsign | EZS17VT |
|---|---|
| Flight time | 2h 36m |
| Altitude | 19000 |
| Route | OLBEN Z50 RESIA/N0450F350 DCT ROTAR DCT OKLAX/N0447F370 DCT ENFAR DCT TALAS UN130 MES UN139 LURUS UL995 CODIC |
| Aircraft | A320/M-SDE3FGHIRWY/LB1 |
Departure
| Time | 2026-04-29 21:06 |
|---|---|
| Airport | EuroAirport Basel–Mulhouse–Freiburg (LFSB) |
Arrival
| Time | 2026-04-29 23:42 |
|---|---|
| Airport | Rhodes International Airport "Diagoras" (LGRP) |
| Time | Latitude | Longitude | Altitude | Speed | Heading |
|---|---|---|---|---|---|
| 2026-04-29 20:27 | 47.59833 | 7.52832 | 890 ft | 0 kts | 65° |
| 2026-04-29 20:55 | 47.59830 | 7.52823 | 890 ft | 4 kts | 65° |
| 2026-04-29 20:56 | 47.59819 | 7.52788 | 890 ft | 4 kts | 58° |
| 2026-04-29 20:56 | 47.59801 | 7.52761 | 890 ft | 4 kts | 15° |
| 2026-04-29 20:56 | 47.59781 | 7.52761 | 890 ft | 1 kts | 335° |
| 2026-04-29 20:56 | 47.59777 | 7.52764 | 890 ft | 0 kts | 335° |
| 2026-04-29 20:58 | 47.59792 | 7.52754 | 890 ft | 5 kts | 335° |
| 2026-04-29 20:59 | 47.59835 | 7.52713 | 890 ft | 10 kts | 304° |
| 2026-04-29 20:59 | 47.59873 | 7.52606 | 890 ft | 15 kts | 326° |
| 2026-04-29 20:59 | 47.59978 | 7.52529 | 890 ft | 19 kts | 335° |
| 2026-04-29 20:59 | 47.60111 | 7.52437 | 890 ft | 23 kts | 334° |
| 2026-04-29 21:00 | 47.60271 | 7.52326 | 888 ft | 28 kts | 335° |
| 2026-04-29 21:00 | 47.60452 | 7.52200 | 883 ft | 28 kts | 335° |
| 2026-04-29 21:00 | 47.60609 | 7.52090 | 882 ft | 20 kts | 334° |
| 2026-04-29 21:00 | 47.60739 | 7.52001 | 881 ft | 20 kts | 334° |
| 2026-04-29 21:01 | 47.60864 | 7.51914 | 881 ft | 20 kts | 335° |
| 2026-04-29 21:01 | 47.61001 | 7.51818 | 876 ft | 22 kts | 335° |
| 2026-04-29 21:01 | 47.61144 | 7.51719 | 872 ft | 24 kts | 334° |
| 2026-04-29 21:01 | 47.61299 | 7.51611 | 869 ft | 25 kts | 335° |
| 2026-04-29 21:02 | 47.61461 | 7.51498 | 862 ft | 26 kts | 335° |
| 2026-04-29 21:02 | 47.61623 | 7.51385 | 868 ft | 25 kts | 335° |
| 2026-04-29 21:02 | 47.61738 | 7.51305 | 873 ft | 12 kts | 334° |
| 2026-04-29 21:02 | 47.61792 | 7.51237 | 873 ft | 10 kts | 303° |
| 2026-04-29 21:03 | 47.61803 | 7.51148 | 874 ft | 7 kts | 259° |
| 2026-04-29 21:03 | 47.61795 | 7.51117 | 876 ft | 1 kts | 244° |
| 2026-04-29 21:03 | 47.61795 | 7.51116 | 876 ft | 0 kts | 244° |
| 2026-04-29 21:04 | 47.61775 | 7.51057 | 876 ft | 15 kts | 243° |
| 2026-04-29 21:04 | 47.61684 | 7.51048 | 876 ft | 11 kts | 154° |
| 2026-04-29 21:04 | 47.61675 | 7.51055 | 876 ft | 0 kts | 154° |
| 2026-04-29 21:05 | 47.61672 | 7.51057 | 876 ft | 10 kts | 154° |
| 2026-04-29 21:05 | 47.61359 | 7.51276 | 869 ft | 86 kts | 155° |
| 2026-04-29 21:05 | 47.60641 | 7.51775 | 881 ft | 140 kts | 155° |
| 2026-04-29 21:05 | 47.59621 | 7.52493 | 918 ft | 180 kts | 153° |
| 2026-04-29 21:06 | 47.58470 | 7.53311 | 1504 ft | 184 kts | 152° |
| 2026-04-29 21:06 | 47.57310 | 7.54106 | 2238 ft | 185 kts | 150° |
| 2026-04-29 21:06 | 47.56087 | 7.54951 | 2550 ft | 205 kts | 149° |
| 2026-04-29 21:06 | 47.54715 | 7.55910 | 2838 ft | 231 kts | 149° |
| 2026-04-29 21:07 | 47.53198 | 7.56970 | 3305 ft | 251 kts | 149° |
| 2026-04-29 21:07 | 47.51597 | 7.58078 | 4144 ft | 255 kts | 150° |
| 2026-04-29 21:07 | 47.49980 | 7.59192 | 5019 ft | 258 kts | 150° |
| 2026-04-29 21:07 | 47.48345 | 7.60318 | 5847 ft | 262 kts | 151° |
| 2026-04-29 21:08 | 47.46596 | 7.61245 | 6623 ft | 272 kts | 166° |
| 2026-04-29 21:08 | 47.44681 | 7.61505 | 7366 ft | 279 kts | 173° |
| 2026-04-29 21:08 | 47.42736 | 7.61698 | 8128 ft | 282 kts | 173° |
| 2026-04-29 21:08 | 47.40755 | 7.61895 | 8876 ft | 287 kts | 172° |
| 2026-04-29 21:09 | 47.38743 | 7.62095 | 9632 ft | 292 kts | 173° |
| 2026-04-29 21:09 | 47.36704 | 7.62299 | 10263 ft | 296 kts | 173° |
| 2026-04-29 21:09 | 47.34632 | 7.62513 | 10885 ft | 302 kts | 173° |
| 2026-04-29 21:09 | 47.32492 | 7.62794 | 11276 ft | 318 kts | 168° |
| 2026-04-29 21:10 | 47.30265 | 7.63561 | 11443 ft | 338 kts | 159° |
| 2026-04-29 21:10 | 47.28040 | 7.64950 | 11582 ft | 358 kts | 149° |
| 2026-04-29 21:10 | 47.25832 | 7.66811 | 11928 ft | 371 kts | 148° |
| 2026-04-29 21:10 | 47.23602 | 7.68692 | 12501 ft | 377 kts | 148° |
| 2026-04-29 21:11 | 47.21417 | 7.70845 | 13092 ft | 380 kts | 138° |
| 2026-04-29 21:11 | 47.19535 | 7.73569 | 13692 ft | 382 kts | 127° |
| 2026-04-29 21:11 | 47.18049 | 7.76808 | 14253 ft | 383 kts | 115° |
| 2026-04-29 21:11 | 47.17008 | 7.80414 | 14832 ft | 384 kts | 108° |
| 2026-04-29 21:12 | 47.16067 | 7.84199 | 15439 ft | 387 kts | 108° |
| 2026-04-29 21:12 | 47.15134 | 7.87912 | 16022 ft | 390 kts | 108° |
| 2026-04-29 21:12 | 47.14180 | 7.91686 | 16596 ft | 393 kts | 108° |
| 2026-04-29 21:12 | 47.13336 | 7.95496 | 17168 ft | 395 kts | 101° |
| 2026-04-29 21:13 | 47.12701 | 7.99447 | 17745 ft | 398 kts | 101° |
| 2026-04-29 21:13 | 47.12065 | 8.03410 | 18319 ft | 401 kts | 101° |
| 2026-04-29 21:13 | 47.11415 | 8.07448 | 18827 ft | 404 kts | 101° |
| 2026-04-29 21:13 | 47.10767 | 8.11476 | 19112 ft | 407 kts | 101° |
| 2026-04-29 21:14 | 47.10110 | 8.15531 | 19182 ft | 407 kts | 101° |
| 2026-04-29 21:14 | 47.09452 | 8.19580 | 19194 ft | 408 kts | 101° |
| 2026-04-29 21:14 | 47.08795 | 8.23605 | 19197 ft | 408 kts | 101° |
| 2026-04-29 21:14 | 47.08131 | 8.27671 | 19194 ft | 408 kts | 101° |
| 2026-04-29 21:15 | 47.07474 | 8.31707 | 19194 ft | 408 kts | 101° |
| 2026-04-29 21:15 | 47.06811 | 8.35758 | 19193 ft | 408 kts | 101° |
| 2026-04-29 21:15 | 47.06139 | 8.39852 | 19191 ft | 409 kts | 101° |
| 2026-04-29 21:15 | 47.05470 | 8.43924 | 19195 ft | 409 kts | 101° |
| 2026-04-29 21:16 | 47.04801 | 8.47979 | 19190 ft | 409 kts | 101° |
| 2026-04-29 21:16 | 47.04086 | 8.52010 | 19191 ft | 411 kts | 106° |
| 2026-04-29 21:16 | 47.02986 | 8.55886 | 19192 ft | 414 kts | 115° |
| 2026-04-29 21:16 | 47.01634 | 8.59603 | 19192 ft | 414 kts | 116° |
| 2026-04-29 21:17 | 47.00278 | 8.63333 | 19182 ft | 414 kts | 116° |
| 2026-04-29 21:17 | 46.98924 | 8.67069 | 19186 ft | 414 kts | 116° |
| 2026-04-29 21:17 | 46.97570 | 8.70800 | 19182 ft | 415 kts | 116° |
| 2026-04-29 21:17 | 46.96215 | 8.74526 | 19180 ft | 415 kts | 116° |
| 2026-04-29 21:18 | 46.94858 | 8.78250 | 19177 ft | 415 kts | 116° |
| 2026-04-29 21:18 | 46.93492 | 8.81991 | 19176 ft | 415 kts | 116° |
| 2026-04-29 21:18 | 46.92130 | 8.85723 | 19174 ft | 416 kts | 116° |
| 2026-04-29 21:18 | 46.90940 | 8.88977 | 19170 ft | 416 kts | 116° |
| 2026-04-29 21:19 | 46.89575 | 8.92706 | 19166 ft | 415 kts | 116° |
| 2026-04-29 21:19 | 46.88207 | 8.96438 | 19163 ft | 416 kts | 116° |
| 2026-04-29 21:19 | 46.86844 | 9.00148 | 19195 ft | 418 kts | 116° |
| 2026-04-29 21:19 | 46.85439 | 9.03966 | 19685 ft | 421 kts | 116° |
| 2026-04-29 21:20 | 46.84051 | 9.07743 | 20165 ft | 424 kts | 116° |
| 2026-04-29 21:20 | 46.82658 | 9.11541 | 20608 ft | 427 kts | 116° |
| 2026-04-29 21:20 | 46.81244 | 9.15388 | 21040 ft | 430 kts | 116° |
| 2026-04-29 21:20 | 46.79819 | 9.19251 | 21461 ft | 433 kts | 116° |
| 2026-04-29 21:21 | 46.78383 | 9.23126 | 21880 ft | 437 kts | 117° |
| 2026-04-29 21:21 | 46.76928 | 9.27037 | 22272 ft | 441 kts | 117° |
| 2026-04-29 21:21 | 46.75458 | 9.30993 | 22671 ft | 444 kts | 117° |
| 2026-04-29 21:21 | 46.74460 | 9.33679 | 22925 ft | 446 kts | 117° |
| 2026-04-29 21:22 | 46.72994 | 9.37622 | 23272 ft | 450 kts | 117° |
| 2026-04-29 21:22 | 46.71455 | 9.41753 | 23638 ft | 454 kts | 117° |
| 2026-04-29 21:22 | 46.69941 | 9.45812 | 23944 ft | 457 kts | 117° |
| 2026-04-29 21:22 | 46.68408 | 9.49916 | 24222 ft | 461 kts | 117° |
| 2026-04-29 21:23 | 46.66866 | 9.54038 | 24513 ft | 465 kts | 118° |
| 2026-04-29 21:23 | 46.65334 | 9.58127 | 24788 ft | 468 kts | 118° |
| 2026-04-29 21:23 | 46.63747 | 9.62346 | 25074 ft | 472 kts | 118° |
| 2026-04-29 21:23 | 46.62163 | 9.66546 | 25352 ft | 475 kts | 118° |
| 2026-04-29 21:24 | 46.60547 | 9.70831 | 25612 ft | 478 kts | 118° |
| 2026-04-29 21:24 | 46.58964 | 9.75024 | 25857 ft | 481 kts | 118° |
| 2026-04-29 21:24 | 46.57323 | 9.79362 | 26103 ft | 485 kts | 118° |
| 2026-04-29 21:24 | 46.55690 | 9.83680 | 26337 ft | 488 kts | 119° |
| 2026-04-29 21:25 | 46.54051 | 9.88001 | 26569 ft | 491 kts | 119° |
| 2026-04-29 21:25 | 46.52400 | 9.92355 | 26812 ft | 494 kts | 119° |
| 2026-04-29 21:25 | 46.50733 | 9.96734 | 27045 ft | 496 kts | 119° |
| 2026-04-29 21:25 | 46.49033 | 10.01194 | 27272 ft | 499 kts | 119° |
| 2026-04-29 21:26 | 46.47367 | 10.05558 | 27474 ft | 502 kts | 119° |
| 2026-04-29 21:26 | 46.45654 | 10.09997 | 27654 ft | 505 kts | 120° |
| 2026-04-29 21:26 | 46.43922 | 10.14432 | 27868 ft | 507 kts | 120° |
| 2026-04-29 21:26 | 46.42103 | 10.19051 | 28061 ft | 510 kts | 120° |
| 2026-04-29 21:27 | 46.40331 | 10.23538 | 28281 ft | 512 kts | 120° |
| 2026-04-29 21:27 | 46.38565 | 10.28005 | 28578 ft | 512 kts | 121° |
| 2026-04-29 21:27 | 46.36790 | 10.32491 | 28850 ft | 513 kts | 121° |
| 2026-04-29 21:27 | 46.34996 | 10.37027 | 29109 ft | 513 kts | 121° |
| 2026-04-29 21:28 | 46.33219 | 10.41519 | 29417 ft | 514 kts | 121° |
| 2026-04-29 21:28 | 46.31446 | 10.45997 | 29707 ft | 514 kts | 121° |
| 2026-04-29 21:28 | 46.29661 | 10.50501 | 29937 ft | 515 kts | 121° |
| 2026-04-29 21:28 | 46.27876 | 10.55000 | 30221 ft | 516 kts | 121° |
| 2026-04-29 21:29 | 46.26089 | 10.59507 | 30455 ft | 517 kts | 121° |
| 2026-04-29 21:29 | 46.24298 | 10.64020 | 30703 ft | 517 kts | 121° |
| 2026-04-29 21:29 | 46.22505 | 10.68528 | 30982 ft | 517 kts | 121° |
| 2026-04-29 21:29 | 46.20719 | 10.73003 | 31212 ft | 516 kts | 121° |
| 2026-04-29 21:30 | 46.18920 | 10.77499 | 31421 ft | 516 kts | 121° |
| 2026-04-29 21:30 | 46.17119 | 10.81986 | 31697 ft | 517 kts | 121° |
| 2026-04-29 21:30 | 46.15315 | 10.86468 | 31995 ft | 516 kts | 121° |
| 2026-04-29 21:30 | 46.13507 | 10.90947 | 32223 ft | 516 kts | 121° |
| 2026-04-29 21:31 | 46.11706 | 10.95406 | 32464 ft | 516 kts | 121° |
| 2026-04-29 21:31 | 46.09890 | 10.99900 | 32741 ft | 516 kts | 121° |
| 2026-04-29 21:31 | 46.08084 | 11.04360 | 32976 ft | 516 kts | 121° |
| 2026-04-29 21:31 | 46.06274 | 11.08822 | 33238 ft | 516 kts | 121° |
| 2026-04-29 21:32 | 46.04461 | 11.13288 | 33467 ft | 516 kts | 121° |
| 2026-04-29 21:32 | 46.02657 | 11.17737 | 33738 ft | 516 kts | 120° |
| 2026-04-29 21:32 | 46.00850 | 11.22195 | 33998 ft | 515 kts | 120° |
| 2026-04-29 21:32 | 45.99043 | 11.26646 | 34234 ft | 516 kts | 120° |
| 2026-04-29 21:33 | 45.97228 | 11.31093 | 34440 ft | 515 kts | 121° |
| 2026-04-29 21:33 | 45.95407 | 11.35537 | 34699 ft | 514 kts | 121° |
| 2026-04-29 21:33 | 45.93600 | 11.39943 | 34949 ft | 512 kts | 121° |
| 2026-04-29 21:33 | 45.91793 | 11.44344 | 35169 ft | 511 kts | 121° |
| 2026-04-29 21:34 | 45.89982 | 11.48753 | 35222 ft | 512 kts | 121° |
| 2026-04-29 21:34 | 45.86384 | 11.57510 | 35217 ft | 513 kts | 121° |
| 2026-04-29 21:35 | 45.82747 | 11.66311 | 35214 ft | 513 kts | 121° |
| 2026-04-29 21:35 | 45.79106 | 11.75095 | 35201 ft | 513 kts | 121° |
| 2026-04-29 21:36 | 45.75420 | 11.83949 | 35184 ft | 512 kts | 121° |
| 2026-04-29 21:36 | 45.71770 | 11.92701 | 35186 ft | 512 kts | 121° |
| 2026-04-29 21:37 | 45.68136 | 12.01410 | 35196 ft | 512 kts | 121° |
| 2026-04-29 21:37 | 45.64454 | 12.10193 | 35190 ft | 512 kts | 122° |
| 2026-04-29 21:38 | 45.60770 | 12.18920 | 35187 ft | 512 kts | 122° |
| 2026-04-29 21:38 | 45.57438 | 12.26788 | 35189 ft | 513 kts | 122° |
| 2026-04-29 21:39 | 45.53754 | 12.35493 | 35190 ft | 513 kts | 122° |
| 2026-04-29 21:39 | 45.50053 | 12.44217 | 35188 ft | 513 kts | 122° |
| 2026-04-29 21:40 | 45.46361 | 12.52888 | 35188 ft | 513 kts | 122° |
| 2026-04-29 21:40 | 45.42641 | 12.61581 | 35184 ft | 513 kts | 122° |
| 2026-04-29 21:41 | 45.38918 | 12.70257 | 35184 ft | 513 kts | 122° |
| 2026-04-29 21:41 | 45.35198 | 12.78911 | 35175 ft | 513 kts | 122° |
| 2026-04-29 21:42 | 45.31471 | 12.87550 | 35173 ft | 513 kts | 122° |
| 2026-04-29 21:42 | 45.28370 | 12.94715 | 35172 ft | 513 kts | 123° |
| 2026-04-29 21:43 | 45.23985 | 13.04810 | 35180 ft | 513 kts | 122° |
| 2026-04-29 21:43 | 45.20246 | 13.13416 | 35171 ft | 512 kts | 123° |
| 2026-04-29 21:44 | 45.16491 | 13.22006 | 35163 ft | 512 kts | 123° |
| 2026-04-29 21:44 | 45.12757 | 13.30527 | 35167 ft | 511 kts | 123° |
| 2026-04-29 21:45 | 45.09009 | 13.39065 | 35161 ft | 511 kts | 123° |
| 2026-04-29 21:45 | 45.05255 | 13.47597 | 35158 ft | 510 kts | 123° |
| 2026-04-29 21:46 | 45.01467 | 13.56170 | 35157 ft | 510 kts | 123° |
| 2026-04-29 21:46 | 44.97727 | 13.64598 | 35150 ft | 510 kts | 123° |
| 2026-04-29 21:47 | 44.93964 | 13.73075 | 35143 ft | 509 kts | 124° |
| 2026-04-29 21:47 | 44.90186 | 13.81533 | 35145 ft | 509 kts | 124° |
| 2026-04-29 21:48 | 44.86400 | 13.89964 | 35145 ft | 509 kts | 124° |
| 2026-04-29 21:48 | 44.83236 | 13.97027 | 35143 ft | 509 kts | 124° |
| 2026-04-29 21:49 | 44.79460 | 14.05443 | 35142 ft | 508 kts | 124° |
| 2026-04-29 21:49 | 44.75675 | 14.13852 | 35141 ft | 508 kts | 124° |
| 2026-04-29 21:50 | 44.71910 | 14.22177 | 35132 ft | 507 kts | 124° |
| 2026-04-29 21:50 | 44.68114 | 14.30544 | 35129 ft | 507 kts | 124° |
| 2026-04-29 21:51 | 44.64314 | 14.38891 | 35119 ft | 507 kts | 124° |
| 2026-04-29 21:51 | 44.58601 | 14.51392 | 35111 ft | 507 kts | 124° |
| 2026-04-29 21:52 | 44.54791 | 14.59717 | 35101 ft | 507 kts | 125° |
| 2026-04-29 21:52 | 44.50975 | 14.68015 | 35100 ft | 507 kts | 125° |
| 2026-04-29 21:53 | 44.47152 | 14.76311 | 35102 ft | 507 kts | 125° |
| 2026-04-29 21:53 | 44.43329 | 14.84583 | 35103 ft | 507 kts | 125° |
| 2026-04-29 21:54 | 44.39489 | 14.92856 | 35105 ft | 506 kts | 125° |
| 2026-04-29 21:54 | 44.35652 | 15.01113 | 35115 ft | 507 kts | 125° |
| 2026-04-29 21:55 | 44.31805 | 15.09367 | 35116 ft | 507 kts | 125° |
| 2026-04-29 21:55 | 44.27951 | 15.17596 | 35118 ft | 506 kts | 125° |
| 2026-04-29 21:56 | 44.24102 | 15.25804 | 35115 ft | 506 kts | 125° |
| 2026-04-29 21:56 | 44.20246 | 15.34021 | 35118 ft | 506 kts | 125° |
| 2026-04-29 21:57 | 44.16380 | 15.42214 | 35118 ft | 505 kts | 126° |
| 2026-04-29 21:57 | 44.12508 | 15.50385 | 35121 ft | 505 kts | 126° |
| 2026-04-29 21:58 | 44.08637 | 15.58552 | 35119 ft | 505 kts | 126° |
| 2026-04-29 21:58 | 44.04776 | 15.66682 | 35113 ft | 505 kts | 126° |
| 2026-04-29 21:59 | 44.00903 | 15.74813 | 35107 ft | 504 kts | 126° |
| 2026-04-29 21:59 | 43.97037 | 15.82884 | 35097 ft | 504 kts | 126° |
| 2026-04-29 22:00 | 43.93123 | 15.91027 | 35101 ft | 504 kts | 126° |
| 2026-04-29 22:00 | 43.89255 | 15.99060 | 35098 ft | 504 kts | 126° |
| 2026-04-29 22:01 | 43.85383 | 16.07155 | 35098 ft | 504 kts | 124° |
| 2026-04-29 22:01 | 43.81747 | 16.15449 | 35100 ft | 504 kts | 122° |
| 2026-04-29 22:02 | 43.78236 | 16.23827 | 35098 ft | 503 kts | 122° |
| 2026-04-29 22:02 | 43.74680 | 16.32159 | 35091 ft | 503 kts | 122° |
| 2026-04-29 22:03 | 43.71053 | 16.40438 | 35087 ft | 503 kts | 123° |
| 2026-04-29 22:03 | 43.67409 | 16.48677 | 35086 ft | 502 kts | 123° |
| 2026-04-29 22:04 | 43.63764 | 16.56916 | 35092 ft | 502 kts | 123° |
| 2026-04-29 22:04 | 43.60131 | 16.65154 | 35091 ft | 502 kts | 123° |
| 2026-04-29 22:05 | 43.56507 | 16.73386 | 35095 ft | 502 kts | 123° |
| 2026-04-29 22:06 | 43.51045 | 16.85705 | 35099 ft | 502 kts | 123° |
| 2026-04-29 22:06 | 43.47385 | 16.93882 | 35097 ft | 502 kts | 123° |
| 2026-04-29 22:07 | 43.43733 | 17.02062 | 35100 ft | 502 kts | 123° |
| 2026-04-29 22:07 | 43.40102 | 17.10181 | 35101 ft | 501 kts | 123° |
| 2026-04-29 22:08 | 43.36438 | 17.18340 | 35106 ft | 501 kts | 123° |
| 2026-04-29 22:08 | 43.32773 | 17.26488 | 35098 ft | 501 kts | 123° |
| 2026-04-29 22:09 | 43.29096 | 17.34627 | 35103 ft | 501 kts | 123° |
| 2026-04-29 22:09 | 43.25418 | 17.42739 | 35094 ft | 501 kts | 123° |
| 2026-04-29 22:10 | 43.21741 | 17.50830 | 35095 ft | 500 kts | 123° |
| 2026-04-29 22:10 | 43.18052 | 17.58934 | 35095 ft | 500 kts | 123° |
| 2026-04-29 22:11 | 43.14367 | 17.67012 | 35099 ft | 500 kts | 123° |
| 2026-04-29 22:11 | 43.10678 | 17.75063 | 35097 ft | 499 kts | 124° |
| 2026-04-29 22:12 | 43.06980 | 17.83105 | 35098 ft | 499 kts | 124° |
| 2026-04-29 22:12 | 43.03285 | 17.91127 | 35093 ft | 498 kts | 124° |
| 2026-04-29 22:13 | 42.99591 | 17.99134 | 35096 ft | 498 kts | 124° |
| 2026-04-29 22:13 | 42.95892 | 18.07125 | 35095 ft | 497 kts | 124° |
| 2026-04-29 22:14 | 42.92191 | 18.15103 | 35095 ft | 497 kts | 124° |
| 2026-04-29 22:14 | 42.88489 | 18.23065 | 35093 ft | 496 kts | 124° |
| 2026-04-29 22:15 | 42.84781 | 18.30996 | 35088 ft | 496 kts | 124° |
| 2026-04-29 22:15 | 42.81092 | 18.38874 | 35089 ft | 496 kts | 124° |
| 2026-04-29 22:16 | 42.77386 | 18.46780 | 35092 ft | 496 kts | 124° |
| 2026-04-29 22:16 | 42.73666 | 18.54683 | 35098 ft | 496 kts | 124° |
| 2026-04-29 22:17 | 42.69944 | 18.62572 | 35091 ft | 495 kts | 124° |
| 2026-04-29 22:17 | 42.66224 | 18.70444 | 35089 ft | 495 kts | 124° |
| 2026-04-29 22:18 | 42.62496 | 18.78317 | 35080 ft | 495 kts | 124° |
| 2026-04-29 22:18 | 42.58762 | 18.86172 | 35082 ft | 495 kts | 124° |
| 2026-04-29 22:19 | 42.55024 | 18.94017 | 35082 ft | 495 kts | 124° |
| 2026-04-29 22:19 | 42.51275 | 19.01854 | 35079 ft | 495 kts | 124° |
| 2026-04-29 22:20 | 42.47538 | 19.09658 | 35074 ft | 495 kts | 125° |
| 2026-04-29 22:20 | 42.43774 | 19.17473 | 35068 ft | 495 kts | 125° |
| 2026-04-29 22:21 | 42.40005 | 19.25276 | 35074 ft | 495 kts | 124° |
| 2026-04-29 22:21 | 42.36254 | 19.33066 | 35073 ft | 495 kts | 125° |
| 2026-04-29 22:22 | 42.32489 | 19.40857 | 35075 ft | 495 kts | 125° |
| 2026-04-29 22:22 | 42.28711 | 19.48632 | 35076 ft | 494 kts | 125° |
| 2026-04-29 22:23 | 42.24934 | 19.56382 | 35081 ft | 494 kts | 125° |
| 2026-04-29 22:23 | 42.21174 | 19.64082 | 35090 ft | 494 kts | 125° |
| 2026-04-29 22:24 | 42.17372 | 19.71877 | 35107 ft | 494 kts | 125° |
| 2026-04-29 22:24 | 42.13608 | 19.79543 | 35108 ft | 494 kts | 125° |
| 2026-04-29 22:25 | 42.09812 | 19.87261 | 35116 ft | 493 kts | 125° |
| 2026-04-29 22:25 | 42.06016 | 19.94957 | 35119 ft | 493 kts | 125° |
| 2026-04-29 22:26 | 42.02217 | 20.02648 | 35119 ft | 493 kts | 126° |
| 2026-04-29 22:26 | 41.98414 | 20.10308 | 35122 ft | 493 kts | 126° |
| 2026-04-29 22:27 | 41.94611 | 20.17965 | 35119 ft | 492 kts | 126° |
| 2026-04-29 22:27 | 41.90806 | 20.25596 | 35118 ft | 492 kts | 126° |
| 2026-04-29 22:28 | 41.87000 | 20.33227 | 35121 ft | 491 kts | 126° |
| 2026-04-29 22:28 | 41.83193 | 20.40849 | 35125 ft | 492 kts | 126° |
| 2026-04-29 22:29 | 41.80022 | 20.47158 | 35111 ft | 491 kts | 126° |
| 2026-04-29 22:29 | 41.75559 | 20.56036 | 35106 ft | 491 kts | 125° |
| 2026-04-29 22:30 | 41.71811 | 20.63671 | 35106 ft | 491 kts | 125° |
| 2026-04-29 22:30 | 41.68081 | 20.71331 | 35105 ft | 491 kts | 125° |
| 2026-04-29 22:31 | 41.64321 | 20.78968 | 35110 ft | 491 kts | 125° |
| 2026-04-29 22:31 | 41.60551 | 20.86578 | 35109 ft | 491 kts | 125° |
| 2026-04-29 22:32 | 41.57419 | 20.92899 | 35103 ft | 490 kts | 125° |
| 2026-04-29 22:32 | 41.53652 | 21.00495 | 35104 ft | 490 kts | 125° |
| 2026-04-29 22:33 | 41.49883 | 21.08070 | 35104 ft | 490 kts | 125° |
| 2026-04-29 22:33 | 41.46107 | 21.15648 | 35105 ft | 490 kts | 125° |
| 2026-04-29 22:34 | 41.42326 | 21.23195 | 35130 ft | 490 kts | 125° |
| 2026-04-29 22:34 | 41.40435 | 21.26963 | 35333 ft | 489 kts | 125° |
| 2026-04-29 22:34 | 41.38517 | 21.30789 | 35547 ft | 489 kts | 125° |
| 2026-04-29 22:34 | 41.36718 | 21.34379 | 35723 ft | 488 kts | 125° |
| 2026-04-29 22:35 | 41.34830 | 21.38139 | 35896 ft | 488 kts | 126° |
| 2026-04-29 22:35 | 41.32968 | 21.41839 | 36068 ft | 488 kts | 126° |
| 2026-04-29 22:35 | 41.31076 | 21.45592 | 36234 ft | 488 kts | 126° |
| 2026-04-29 22:35 | 41.29179 | 21.49350 | 36412 ft | 487 kts | 126° |
| 2026-04-29 22:36 | 41.27292 | 21.53080 | 36574 ft | 487 kts | 126° |
| 2026-04-29 22:36 | 41.25398 | 21.56824 | 36743 ft | 487 kts | 126° |
| 2026-04-29 22:36 | 41.23510 | 21.60552 | 36897 ft | 487 kts | 126° |
| 2026-04-29 22:36 | 41.21616 | 21.64288 | 37068 ft | 486 kts | 126° |
| 2026-04-29 22:37 | 41.19723 | 21.68010 | 37098 ft | 487 kts | 126° |
| 2026-04-29 22:37 | 41.15933 | 21.75451 | 37093 ft | 487 kts | 126° |
| 2026-04-29 22:38 | 41.12142 | 21.82906 | 37098 ft | 487 kts | 126° |
| 2026-04-29 22:38 | 41.08339 | 21.90345 | 37101 ft | 487 kts | 126° |
| 2026-04-29 22:39 | 41.04425 | 21.97664 | 37096 ft | 486 kts | 129° |
| 2026-04-29 22:39 | 41.00315 | 22.04774 | 37095 ft | 486 kts | 130° |
| 2026-04-29 22:40 | 40.96175 | 22.11842 | 37101 ft | 486 kts | 130° |
| 2026-04-29 22:40 | 40.92076 | 22.18960 | 37105 ft | 486 kts | 129° |
| 2026-04-29 22:41 | 40.88015 | 22.26090 | 37111 ft | 486 kts | 129° |
| 2026-04-29 22:41 | 40.83945 | 22.33210 | 37110 ft | 486 kts | 129° |
| 2026-04-29 22:42 | 40.79861 | 22.40334 | 37111 ft | 485 kts | 129° |
| 2026-04-29 22:42 | 40.75775 | 22.47406 | 37110 ft | 485 kts | 129° |
| 2026-04-29 22:43 | 40.71711 | 22.54419 | 37110 ft | 485 kts | 129° |
| 2026-04-29 22:43 | 40.67606 | 22.61514 | 37107 ft | 485 kts | 129° |
| 2026-04-29 22:44 | 40.63516 | 22.68569 | 37112 ft | 485 kts | 129° |
| 2026-04-29 22:44 | 40.59412 | 22.75625 | 37112 ft | 485 kts | 130° |
| 2026-04-29 22:45 | 40.55305 | 22.82653 | 37109 ft | 484 kts | 130° |
| 2026-04-29 22:45 | 40.51193 | 22.89685 | 37111 ft | 484 kts | 130° |
| 2026-04-29 22:46 | 40.47087 | 22.96696 | 37109 ft | 484 kts | 130° |
| 2026-04-29 22:46 | 40.42650 | 23.03301 | 37107 ft | 482 kts | 136° |
| 2026-04-29 22:47 | 40.38032 | 23.09675 | 37106 ft | 482 kts | 136° |
| 2026-04-29 22:47 | 40.33416 | 23.16054 | 37102 ft | 482 kts | 136° |
| 2026-04-29 22:48 | 40.28806 | 23.22420 | 37096 ft | 482 kts | 136° |
| 2026-04-29 22:48 | 40.24210 | 23.28738 | 37098 ft | 482 kts | 136° |
| 2026-04-29 22:49 | 40.19557 | 23.35110 | 37093 ft | 482 kts | 136° |
| 2026-04-29 22:49 | 40.14957 | 23.41402 | 37091 ft | 481 kts | 136° |
| 2026-04-29 22:50 | 40.10297 | 23.47772 | 37091 ft | 481 kts | 136° |
| 2026-04-29 22:50 | 40.05664 | 23.54085 | 37092 ft | 481 kts | 136° |
| 2026-04-29 22:51 | 40.01033 | 23.60386 | 37091 ft | 481 kts | 136° |
| 2026-04-29 22:51 | 39.94121 | 23.69775 | 37090 ft | 480 kts | 136° |
| 2026-04-29 22:52 | 39.89490 | 23.76041 | 37089 ft | 480 kts | 136° |
| 2026-04-29 22:52 | 39.84858 | 23.82293 | 37090 ft | 480 kts | 136° |
| 2026-04-29 22:53 | 39.80225 | 23.88543 | 37091 ft | 479 kts | 136° |
| 2026-04-29 22:53 | 39.75595 | 23.94773 | 37087 ft | 479 kts | 136° |
| 2026-04-29 22:54 | 39.70959 | 24.00991 | 37081 ft | 479 kts | 136° |
| 2026-04-29 22:54 | 39.66320 | 24.07195 | 37082 ft | 479 kts | 136° |
| 2026-04-29 22:55 | 39.61679 | 24.13401 | 37082 ft | 478 kts | 136° |
| 2026-04-29 22:55 | 39.57043 | 24.19589 | 37077 ft | 478 kts | 136° |
| 2026-04-29 22:56 | 39.52406 | 24.25766 | 37073 ft | 478 kts | 136° |
| 2026-04-29 22:56 | 39.47729 | 24.31986 | 37075 ft | 478 kts | 136° |
| 2026-04-29 22:57 | 39.43084 | 24.38143 | 37075 ft | 478 kts | 136° |
| 2026-04-29 22:57 | 39.38468 | 24.44259 | 37073 ft | 478 kts | 136° |
| 2026-04-29 22:58 | 39.33814 | 24.50390 | 37071 ft | 478 kts | 136° |
| 2026-04-29 22:58 | 39.29179 | 24.56548 | 37070 ft | 478 kts | 136° |
| 2026-04-29 22:59 | 39.24567 | 24.62748 | 37068 ft | 478 kts | 136° |
| 2026-04-29 22:59 | 39.19952 | 24.68928 | 37076 ft | 478 kts | 136° |
| 2026-04-29 23:00 | 39.15325 | 24.75083 | 37072 ft | 478 kts | 136° |
| 2026-04-29 23:00 | 39.10691 | 24.81217 | 37067 ft | 478 kts | 136° |
| 2026-04-29 23:01 | 39.06018 | 24.87321 | 37070 ft | 478 kts | 136° |
| 2026-04-29 23:01 | 39.01326 | 24.93377 | 37072 ft | 477 kts | 137° |
| 2026-04-29 23:02 | 38.96644 | 24.99421 | 37073 ft | 477 kts | 136° |
| 2026-04-29 23:02 | 38.91944 | 25.05497 | 37078 ft | 483 kts | 136° |
| 2026-04-29 23:03 | 38.87164 | 25.11671 | 37081 ft | 490 kts | 136° |
| 2026-04-29 23:03 | 38.82341 | 25.17889 | 37076 ft | 491 kts | 136° |
| 2026-04-29 23:04 | 38.77540 | 25.24054 | 37080 ft | 492 kts | 136° |
| 2026-04-29 23:04 | 38.72706 | 25.30242 | 37081 ft | 491 kts | 136° |
| 2026-04-29 23:05 | 38.67873 | 25.36420 | 37073 ft | 491 kts | 136° |
| 2026-04-29 23:05 | 38.63008 | 25.42631 | 37077 ft | 491 kts | 136° |
| 2026-04-29 23:06 | 38.58205 | 25.48748 | 37076 ft | 491 kts | 136° |
| 2026-04-29 23:06 | 38.53362 | 25.54910 | 37078 ft | 490 kts | 137° |
| 2026-04-29 23:07 | 38.48525 | 25.61048 | 37078 ft | 490 kts | 137° |
| 2026-04-29 23:07 | 38.43732 | 25.67118 | 37080 ft | 490 kts | 137° |
| 2026-04-29 23:08 | 38.38885 | 25.73239 | 37082 ft | 490 kts | 137° |
| 2026-04-29 23:08 | 38.34007 | 25.79398 | 37079 ft | 490 kts | 136° |
| 2026-04-29 23:09 | 38.29178 | 25.85508 | 37080 ft | 490 kts | 136° |
| 2026-04-29 23:09 | 38.24692 | 25.90113 | 37072 ft | 485 kts | 151° |
| 2026-04-29 23:10 | 38.18596 | 25.93598 | 37068 ft | 479 kts | 164° |
| 2026-04-29 23:10 | 38.12302 | 25.96433 | 37065 ft | 480 kts | 163° |
| 2026-04-29 23:11 | 38.06013 | 25.99296 | 37065 ft | 480 kts | 163° |
| 2026-04-29 23:11 | 37.99735 | 26.02165 | 37065 ft | 480 kts | 163° |
| 2026-04-29 23:12 | 37.93443 | 26.05027 | 37066 ft | 480 kts | 163° |
| 2026-04-29 23:12 | 37.87170 | 26.07853 | 37083 ft | 473 kts | 163° |
| 2026-04-29 23:13 | 37.81018 | 26.10631 | 37076 ft | 468 kts | 163° |
| 2026-04-29 23:13 | 37.74884 | 26.13402 | 37076 ft | 467 kts | 163° |
| 2026-04-29 23:14 | 37.68800 | 26.16147 | 37074 ft | 467 kts | 163° |
| 2026-04-29 23:14 | 37.62630 | 26.18923 | 37075 ft | 468 kts | 163° |
| 2026-04-29 23:15 | 37.56537 | 26.21647 | 37064 ft | 468 kts | 163° |
| 2026-04-29 23:15 | 37.50398 | 26.24395 | 37064 ft | 468 kts | 163° |
| 2026-04-29 23:16 | 37.44269 | 26.27152 | 37062 ft | 468 kts | 163° |
| 2026-04-29 23:16 | 37.38130 | 26.29889 | 37062 ft | 468 kts | 163° |
| 2026-04-29 23:17 | 37.31973 | 26.32618 | 37053 ft | 469 kts | 163° |
| 2026-04-29 23:17 | 37.25817 | 26.35359 | 37053 ft | 469 kts | 163° |
| 2026-04-29 23:18 | 37.19655 | 26.38105 | 37052 ft | 470 kts | 163° |
| 2026-04-29 23:18 | 37.13460 | 26.40862 | 37050 ft | 470 kts | 163° |
| 2026-04-29 23:19 | 37.07285 | 26.43593 | 37045 ft | 471 kts | 163° |
| 2026-04-29 23:19 | 37.01104 | 26.46323 | 37047 ft | 471 kts | 163° |
| 2026-04-29 23:20 | 36.94939 | 26.49175 | 37046 ft | 474 kts | 156° |
| 2026-04-29 23:20 | 36.89560 | 26.53960 | 37047 ft | 480 kts | 135° |
| 2026-04-29 23:21 | 36.87447 | 26.57196 | 37043 ft | 482 kts | 124° |
| 2026-04-29 23:21 | 36.85811 | 26.60842 | 37042 ft | 483 kts | 114° |
| 2026-04-29 23:21 | 36.83156 | 26.68536 | 37033 ft | 483 kts | 113° |
| 2026-04-29 23:22 | 36.80492 | 26.76252 | 37030 ft | 484 kts | 113° |
| 2026-04-29 23:22 | 36.77831 | 26.83976 | 37032 ft | 485 kts | 113° |
| 2026-04-29 23:23 | 36.75160 | 26.91693 | 37031 ft | 485 kts | 113° |
| 2026-04-29 23:23 | 36.72488 | 26.99412 | 37029 ft | 485 kts | 113° |
| 2026-04-29 23:24 | 36.71145 | 27.03288 | 36898 ft | 486 kts | 113° |
| 2026-04-29 23:24 | 36.69801 | 27.07156 | 35966 ft | 490 kts | 113° |
| 2026-04-29 23:24 | 36.68441 | 27.11058 | 35138 ft | 489 kts | 113° |
| 2026-04-29 23:24 | 36.67087 | 27.14943 | 34318 ft | 488 kts | 113° |
| 2026-04-29 23:25 | 36.65733 | 27.18818 | 33349 ft | 487 kts | 113° |
| 2026-04-29 23:25 | 36.64386 | 27.22652 | 32331 ft | 478 kts | 113° |
| 2026-04-29 23:25 | 36.63068 | 27.26403 | 31355 ft | 470 kts | 113° |
| 2026-04-29 23:25 | 36.61767 | 27.30108 | 30377 ft | 464 kts | 113° |
| 2026-04-29 23:26 | 36.60480 | 27.33770 | 29255 ft | 459 kts | 113° |
| 2026-04-29 23:26 | 36.59211 | 27.37376 | 28190 ft | 453 kts | 113° |
| 2026-04-29 23:26 | 36.57939 | 27.40983 | 27061 ft | 459 kts | 114° |
| 2026-04-29 23:26 | 36.56635 | 27.44671 | 26380 ft | 472 kts | 114° |
| 2026-04-29 23:27 | 36.55301 | 27.48444 | 26123 ft | 477 kts | 114° |
| 2026-04-29 23:27 | 36.53966 | 27.52222 | 25978 ft | 477 kts | 114° |
| 2026-04-29 23:27 | 36.52627 | 27.56012 | 25986 ft | 479 kts | 114° |
| 2026-04-29 23:27 | 36.51286 | 27.59803 | 25014 ft | 479 kts | 114° |
| 2026-04-29 23:28 | 36.49951 | 27.63563 | 23396 ft | 474 kts | 114° |
| 2026-04-29 23:28 | 36.48625 | 27.67288 | 21677 ft | 468 kts | 114° |
| 2026-04-29 23:28 | 36.47333 | 27.70956 | 20262 ft | 459 kts | 111° |
| 2026-04-29 23:28 | 36.46402 | 27.74726 | 19660 ft | 452 kts | 103° |
| 2026-04-29 23:29 | 36.45847 | 27.78530 | 18992 ft | 446 kts | 99° |
| 2026-04-29 23:29 | 36.45330 | 27.82308 | 18338 ft | 441 kts | 99° |
| 2026-04-29 23:29 | 36.44821 | 27.86039 | 17653 ft | 435 kts | 99° |
| 2026-04-29 23:29 | 36.44162 | 27.89668 | 17053 ft | 428 kts | 108° |
| 2026-04-29 23:30 | 36.43032 | 27.93060 | 16494 ft | 421 kts | 118° |
| 2026-04-29 23:30 | 36.41475 | 27.96108 | 15928 ft | 416 kts | 128° |
| 2026-04-29 23:30 | 36.39717 | 27.98925 | 15386 ft | 411 kts | 128° |
| 2026-04-29 23:30 | 36.37983 | 28.01715 | 14831 ft | 407 kts | 128° |
| 2026-04-29 23:31 | 36.36269 | 28.04481 | 14278 ft | 403 kts | 128° |
| 2026-04-29 23:31 | 36.34565 | 28.07236 | 13680 ft | 400 kts | 128° |
| 2026-04-29 23:31 | 36.32886 | 28.09983 | 13048 ft | 397 kts | 127° |
| 2026-04-29 23:31 | 36.31268 | 28.12735 | 12406 ft | 393 kts | 126° |
| 2026-04-29 23:32 | 36.29692 | 28.15483 | 11737 ft | 390 kts | 126° |
| 2026-04-29 23:32 | 36.28133 | 28.18222 | 11081 ft | 387 kts | 126° |
| 2026-04-29 23:32 | 36.26610 | 28.20894 | 10911 ft | 370 kts | 126° |
| 2026-04-29 23:32 | 36.25154 | 28.23437 | 10784 ft | 353 kts | 126° |
| 2026-04-29 23:33 | 36.23755 | 28.25862 | 10666 ft | 338 kts | 126° |
| 2026-04-29 23:33 | 36.22515 | 28.28216 | 10545 ft | 325 kts | 116° |
| 2026-04-29 23:33 | 36.21933 | 28.30853 | 10427 ft | 314 kts | 94° |
| 2026-04-29 23:33 | 36.22145 | 28.33479 | 10293 ft | 304 kts | 73° |
| 2026-04-29 23:34 | 36.23064 | 28.35783 | 10127 ft | 298 kts | 53° |
| 2026-04-29 23:34 | 36.24491 | 28.37641 | 10005 ft | 298 kts | 44° |
| 2026-04-29 23:34 | 36.25986 | 28.39443 | 9514 ft | 302 kts | 44° |
| 2026-04-29 23:34 | 36.27474 | 28.41245 | 9203 ft | 297 kts | 44° |
| 2026-04-29 23:35 | 36.29081 | 28.42837 | 8801 ft | 295 kts | 30° |
| 2026-04-29 23:35 | 36.30962 | 28.43824 | 8405 ft | 293 kts | 14° |
| 2026-04-29 23:35 | 36.32968 | 28.44160 | 7999 ft | 291 kts | 3° |
| 2026-04-29 23:35 | 36.34982 | 28.44305 | 7456 ft | 287 kts | 3° |
| 2026-04-29 23:36 | 36.36978 | 28.44453 | 6777 ft | 285 kts | 3° |
| 2026-04-29 23:36 | 36.38944 | 28.44602 | 6141 ft | 281 kts | 4° |
| 2026-04-29 23:36 | 36.40875 | 28.44750 | 5635 ft | 275 kts | 4° |
| 2026-04-29 23:36 | 36.42768 | 28.44800 | 5198 ft | 276 kts | 352° |
| 2026-04-29 23:37 | 36.44568 | 28.43951 | 4743 ft | 276 kts | 324° |
| 2026-04-29 23:37 | 36.45803 | 28.42207 | 4303 ft | 275 kts | 296° |
| 2026-04-29 23:37 | 36.46305 | 28.39933 | 3867 ft | 273 kts | 277° |
| 2026-04-29 23:37 | 36.46534 | 28.37655 | 3773 ft | 258 kts | 277° |
| 2026-04-29 23:38 | 36.46751 | 28.35506 | 3665 ft | 245 kts | 277° |
| 2026-04-29 23:38 | 36.46961 | 28.33460 | 3557 ft | 232 kts | 277° |
| 2026-04-29 23:38 | 36.47072 | 28.31503 | 3457 ft | 224 kts | 264° |
| 2026-04-29 23:38 | 36.46681 | 28.29628 | 3179 ft | 225 kts | 250° |
| 2026-04-29 23:39 | 36.46152 | 28.27823 | 3011 ft | 221 kts | 250° |
| 2026-04-29 23:39 | 36.45624 | 28.26028 | 2959 ft | 223 kts | 250° |
| 2026-04-29 23:39 | 36.45074 | 28.24166 | 2398 ft | 234 kts | 250° |
| 2026-04-29 23:39 | 36.44517 | 28.22260 | 2018 ft | 235 kts | 250° |
| 2026-04-29 23:40 | 36.43962 | 28.20356 | 1694 ft | 234 kts | 251° |
| 2026-04-29 23:40 | 36.43411 | 28.18466 | 1377 ft | 230 kts | 251° |
| 2026-04-29 23:40 | 36.42886 | 28.16665 | 1102 ft | 212 kts | 251° |
| 2026-04-29 23:40 | 36.42407 | 28.15026 | 813 ft | 191 kts | 250° |
| 2026-04-29 23:41 | 36.41976 | 28.13550 | 577 ft | 173 kts | 251° |
| 2026-04-29 23:41 | 36.41585 | 28.12193 | 317 ft | 161 kts | 251° |
| 2026-04-29 23:41 | 36.41216 | 28.10926 | 137 ft | 152 kts | 250° |
| 2026-04-29 23:41 | 36.40858 | 28.09738 | 43 ft | 136 kts | 249° |
| 2026-04-29 23:42 | 36.40580 | 28.08768 | 29 ft | 97 kts | 250° |
| 2026-04-29 23:42 | 36.40414 | 28.08200 | 28 ft | 40 kts | 249° |
| 2026-04-29 23:42 | 36.40302 | 28.07983 | 29 ft | 26 kts | 224° |
| 2026-04-29 23:42 | 36.40185 | 28.07859 | 28 ft | 14 kts | 197° |
| 2026-04-29 23:43 | 36.40150 | 28.07898 | 28 ft | 7 kts | 93° |
| 2026-04-29 23:43 | 36.40161 | 28.07960 | 28 ft | 7 kts | 73° |
| 2026-04-29 23:43 | 36.40174 | 28.08011 | 28 ft | 6 kts | 71° |
| 2026-04-29 23:43 | 36.40187 | 28.08056 | 28 ft | 8 kts | 68° |
| 2026-04-29 23:44 | 36.40227 | 28.08181 | 28 ft | 22 kts | 70° |
| 2026-04-29 23:44 | 36.40285 | 28.08376 | 28 ft | 25 kts | 70° |
| 2026-04-29 23:44 | 36.40345 | 28.08582 | 28 ft | 26 kts | 69° |
| 2026-04-29 23:44 | 36.40400 | 28.08796 | 28 ft | 21 kts | 81° |
| 2026-04-29 23:45 | 36.40397 | 28.08967 | 28 ft | 21 kts | 89° |
| 2026-04-29 23:45 | 36.40405 | 28.09068 | 28 ft | 2 kts | 141° |
| 2026-04-29 23:45 | 36.40392 | 28.09073 | 28 ft | 2 kts | 161° |
| 2026-04-29 23:45 | 36.40379 | 28.09078 | 28 ft | 2 kts | 161° |
| 2026-04-29 23:46 | 36.40354 | 28.09089 | 28 ft | 0 kts | 160° |
| 2026-04-29 23:46 | 36.40353 | 28.09090 | 28 ft | 0 kts | 160° |